GMTN/TTU METAR and TAF weather

Enter ICAO airport designator
Station Type Date Time Source
GMTN METAR 2021/07/28 21:00 UTC NOAA

GMTN 282100Z 08008KT 6000 BKN006 23/22 Q1013 NOSIG


Station Type Date Time Source
GMTN Decoded METAR 2021/07/28 21:00 UTC NOAA

Tetuan / Sania Ramel, Morocco (GMTN) 35-35N 005-20W 10M
Jul 28, 2021 - 05:00 PM EDT / 2021.07.28 2100 UTC
Wind: from the E (080 degrees) at 9 MPH (8 KT):0
Visibility: 3 mile(s):0
Sky conditions: mostly cloudy
Temperature: 73 F (23 C)
Dew Point: 71 F (22 C)
Relative Humidity: 94%
Pressure (altimeter): 29.91 in. Hg (1013 hPa)
ob: GMTN 282100Z 08008KT 6000 BKN006 23/22 Q1013 NOSIG
cycle: 21

Station Type Date Time Source
GMTN TAF 2021/07/02 12:21 UTC NOAA

TAF GMTN 021100Z 0212/0318 09008KT CAVOK
BECMG 0219/0223 26012KT

Example: see airport list